Time;durP1;ratioP1;P1;durP2;ratioP2;P2;SDS_P1;SDS_P2;PMS_P1;PMS_P2;Temp;Humidity;BMP_temperature;BMP_pressure;BME280_temperature;BME280_humidity;BME280_pressure;Samples;Min_cycle;Max_cycle;Signal;HPM_P1;HPM_P2
2023/07/11 00:00:58;;;;;;;9.02;3.60;;;;;;;19.53;66.29;101597.41;5023852;28;20060;-65
2023/07/11 00:03:24;;;;;;;6.32;3.63;;;;;;;19.49;66.67;101591.63;5024421;28;20364;-65
2023/07/11 00:06:07;;;;;;;7.45;3.83;;;;;;;19.58;66.45;101603.03;5024826;28;20025;-64
2023/07/11 00:08:32;;;;;;;10.60;3.78;;;;;;;19.57;66.46;101591.41;5020352;28;20105;-65
2023/07/11 00:10:58;;;;;;;8.43;3.75;;;;;;;19.61;66.76;101594.50;5024382;28;20112;-64
2023/07/11 00:13:23;;;;;;;8.60;3.90;;;;;;;19.56;66.81;101591.63;5020629;28;20029;-65
2023/07/11 00:15:59;;;;;;;31.15;4.72;;;;;;;19.48;67.29;101595.34;5021388;28;20505;-64
2023/07/11 00:18:24;;;;;;;13.40;3.97;;;;;;;19.47;67.28;101578.38;5019429;28;20030;-65
2023/07/11 00:20:50;;;;;;;13.70;3.72;;;;;;;19.34;67.65;101583.75;5021215;28;20526;-64
2023/07/11 00:23:15;;;;;;;10.18;3.70;;;;;;;19.39;67.75;101583.16;5025320;28;20084;-64
2023/07/11 00:25:40;;;;;;;7.90;3.83;;;;;;;19.37;68.08;101578.00;5028042;28;20036;-64
2023/07/11 00:28:05;;;;;;;8.63;3.95;;;;;;;19.34;68.13;101580.25;5024000;28;20116;-65
2023/07/11 00:30:31;;;;;;;9.40;3.47;;;;;;;19.25;68.17;101576.97;5017720;28;20026;-64
2023/07/11 00:32:56;;;;;;;10.88;3.58;;;;;;;19.17;68.59;101572.63;5021922;28;20035;-65
2023/07/11 00:35:21;;;;;;;5.82;3.42;;;;;;;19.19;68.82;101569.72;5020910;28;20024;-64
2023/07/11 00:37:46;;;;;;;9.90;4.20;;;;;;;19.18;68.63;101568.91;5019996;28;20104;-64
2023/07/11 00:40:12;;;;;;;6.68;3.75;;;;;;;19.23;68.82;101581.72;5021496;28;20029;-64
2023/07/11 00:42:37;;;;;;;7.32;3.78;;;;;;;19.18;69.18;101576.16;5026455;28;20022;-65
2023/07/11 00:45:03;;;;;;;12.93;3.97;;;;;;;19.10;69.01;101574.50;5024411;28;20018;-64
2023/07/11 00:47:30;;;;;;;7.75;3.47;;;;;;;19.11;69.69;101565.38;5019925;28;20052;-64
2023/07/11 00:50:01;;;;;;;7.88;3.40;;;;;;;19.09;70.55;101580.09;5022319;28;20022;-64
2023/07/11 00:52:28;;;;;;;5.95;3.75;;;;;;;19.08;70.55;101571.19;5018682;28;20022;-64
2023/07/11 00:54:58;;;;;;;7.22;3.97;;;;;;;19.05;70.76;101573.44;5013766;28;20064;-64
2023/07/11 00:57:25;;;;;;;4.95;3.67;;;;;;;19.02;71.21;101573.88;5019440;28;20112;-64
2023/07/11 00:59:51;;;;;;;8.52;3.40;;;;;;;18.94;71.30;101574.09;5024008;28;20029;-65
2023/07/11 01:02:21;;;;;;;7.30;3.78;;;;;;;18.83;71.15;101576.38;5017415;28;20023;-64
2023/07/11 01:04:47;;;;;;;6.18;4.05;;;;;;;18.68;71.51;101575.72;5019185;28;20082;-65
2023/07/11 01:07:17;;;;;;;8.52;3.90;;;;;;;18.48;71.48;101582.91;5016044;28;20112;-64
2023/07/11 01:09:42;;;;;;;6.82;4.13;;;;;;;18.30;71.88;101580.00;5021375;28;20049;-64
2023/07/11 01:12:12;;;;;;;8.38;4.43;;;;;;;18.14;72.55;101571.25;5017819;28;20096;-64
2023/07/11 01:14:39;;;;;;;8.07;4.80;;;;;;;18.13;73.02;101572.28;5020295;28;20029;-64
2023/07/11 01:17:30;;;;;;;10.15;5.35;;;;;;;18.18;73.57;101572.50;5020547;28;20031;-64
2023/07/11 01:19:58;;;;;;;12.95;5.30;;;;;;;18.01;73.32;101573.91;5017781;28;20049;-64
2023/07/11 01:22:24;;;;;;;8.95;4.85;;;;;;;18.02;73.66;101572.88;5019433;28;20104;-64
2023/07/11 01:24:51;;;;;;;10.80;4.65;;;;;;;18.06;73.77;101571.44;5021885;28;20446;-64
2023/07/11 01:27:17;;;;;;;9.65;4.97;;;;;;;18.14;73.86;101565.88;5018172;28;20088;-64
2023/07/11 01:29:42;;;;;;;8.43;4.63;;;;;;;18.13;74.28;101566.91;5018829;28;20025;-64
2023/07/11 01:32:10;;;;;;;12.77;4.88;;;;;;;18.15;74.27;101556.78;5026308;28;20040;-65
2023/07/11 01:34:35;;;;;;;7.07;4.55;;;;;;;18.23;74.35;101558.47;5031119;28;20036;-64
2023/07/11 01:37:00;;;;;;;7.00;4.70;;;;;;;18.30;73.83;101555.78;5028060;28;20021;-64
2023/07/11 01:39:25;;;;;;;7.88;4.53;;;;;;;18.35;73.49;101559.53;5027767;28;20514;-64
2023/07/11 01:41:51;;;;;;;9.70;4.93;;;;;;;18.35;73.41;101562.22;5020027;28;20041;-64
2023/07/11 01:44:16;;;;;;;7.97;4.70;;;;;;;18.37;73.63;101545.88;5024855;28;20582;-64
2023/07/11 01:46:41;;;;;;;7.18;4.55;;;;;;;18.34;73.38;101544.44;5028925;28;20091;-64
2023/07/11 01:49:07;;;;;;;7.63;4.65;;;;;;;18.39;73.76;101538.44;5028107;28;20014;-64
2023/07/11 01:51:32;;;;;;;6.75;3.92;;;;;;;18.31;73.44;101534.09;5021241;28;20033;-64
2023/07/11 01:53:57;;;;;;;9.85;4.72;;;;;;;18.30;73.88;101526.22;5024587;28;20414;-64
2023/07/11 01:56:23;;;;;;;8.68;4.35;;;;;;;18.30;74.01;101527.03;5021751;28;20028;-64
2023/07/11 01:58:48;;;;;;;9.07;4.22;;;;;;;18.26;74.03;101525.81;5021493;28;20021;-64
2023/07/11 02:01:13;;;;;;;9.60;4.05;;;;;;;18.19;74.13;101522.25;5020464;28;20052;-64
2023/07/11 02:03:39;;;;;;;9.95;4.20;;;;;;;18.14;74.17;101522.88;5022649;28;21875;-64
2023/07/11 02:06:04;;;;;;;6.95;4.40;;;;;;;18.11;74.75;101517.06;5024390;28;20024;-64
2023/07/11 02:08:29;;;;;;;7.25;4.20;;;;;;;18.11;74.25;101507.16;5019801;28;20058;-64
2023/07/11 02:10:54;;;;;;;8.55;4.45;;;;;;;18.06;74.66;101504.25;5020572;28;20109;-64
2023/07/11 02:13:20;;;;;;;8.20;4.45;;;;;;;18.03;74.47;101507.34;5021992;28;20021;-64
2023/07/11 02:15:45;;;;;;;6.07;4.40;;;;;;;17.93;74.87;101491.63;5021357;28;20052;-64
2023/07/11 02:18:11;;;;;;;4.85;4.10;;;;;;;17.94;74.95;101495.97;5023292;28;20104;-64
2023/07/11 02:20:41;;;;;;;8.25;3.80;;;;;;;17.87;74.99;101495.09;5018564;28;20130;-64
2023/07/11 02:23:07;;;;;;;7.75;3.95;;;;;;;17.88;75.33;101490.53;5024508;28;20025;-64
2023/07/11 02:25:32;;;;;;;7.07;4.20;;;;;;;17.82;74.83;101483.31;5029433;28;20428;-64
2023/07/11 02:27:57;;;;;;;5.53;4.30;;;;;;;17.84;75.43;101478.56;5028308;28;20029;-64
2023/07/11 02:30:23;;;;;;;9.45;4.68;;;;;;;17.84;75.33;101478.56;5027925;28;20079;-64
2023/07/11 02:32:48;;;;;;;9.50;4.63;;;;;;;17.80;75.01;101480.81;5021995;28;20036;-64
2023/07/11 02:35:14;;;;;;;9.57;4.50;;;;;;;17.76;75.12;101476.88;5018696;28;20033;-64
2023/07/11 02:37:39;;;;;;;7.25;4.90;;;;;;;17.75;74.72;101467.16;5026407;28;20727;-64
2023/07/11 02:40:05;;;;;;;6.88;4.97;;;;;;;17.70;74.97;101468.81;5025874;28;20409;-64
2023/07/11 02:42:30;;;;;;;9.02;5.20;;;;;;;17.65;75.12;101461.34;5021238;28;20041;-64
2023/07/11 02:44:56;;;;;;;7.88;4.95;;;;;;;17.65;75.18;101459.47;5028145;28;20025;-64
2023/07/11 02:47:21;;;;;;;10.98;5.07;;;;;;;17.62;75.01;101457.16;5029171;28;20037;-64
2023/07/11 02:49:46;;;;;;;11.52;4.97;;;;;;;17.62;75.34;101454.47;5017500;28;20541;-64
2023/07/11 02:52:11;;;;;;;9.50;4.82;;;;;;;17.62;75.43;101453.66;5019023;28;20105;-65
2023/07/11 02:54:37;;;;;;;9.50;4.70;;;;;;;17.62;75.34;101445.59;5020748;28;20117;-64
2023/07/11 02:57:11;;;;;;;7.18;4.70;;;;;;;17.62;75.36;101445.59;5022014;28;20028;-64
2023/07/11 02:59:36;;;;;;;8.40;4.97;;;;;;;17.60;75.36;101443.09;5025564;28;20037;-64
2023/07/11 03:02:02;;;;;;;8.85;5.18;;;;;;;17.57;75.42;101440.84;5026068;28;20029;-64
2023/07/11 03:04:29;;;;;;;7.75;5.32;;;;;;;17.61;75.25;101439.41;5020081;28;20040;-64
2023/07/11 03:06:57;;;;;;;19.52;5.90;;;;;;;17.65;75.37;101431.78;5022892;28;20033;-64
2023/07/11 03:09:25;;;;;;;8.13;5.35;;;;;;;17.63;75.40;101433.81;5016585;28;20021;-64
2023/07/11 03:11:51;;;;;;;11.25;6.03;;;;;;;17.69;75.27;101418.81;5020332;28;20419;-64
2023/07/11 03:14:18;;;;;;;13.43;5.68;;;;;;;17.71;75.39;101424.81;5021386;28;20084;-64
2023/07/11 03:16:43;;;;;;;11.75;5.35;;;;;;;17.73;75.25;101420.06;5020680;28;20132;-64
2023/07/11 03:19:09;;;;;;;9.73;5.80;;;;;;;17.73;75.02;101423.56;5018801;28;20045;-64
2023/07/11 03:21:35;;;;;;;12.40;6.05;;;;;;;17.73;75.11;101412.00;5014765;28;20022;-64
2023/07/11 03:24:00;;;;;;;9.10;5.60;;;;;;;17.77;75.02;101415.91;5015346;28;20113;-64
2023/07/11 03:26:25;;;;;;;11.40;5.95;;;;;;;17.80;74.56;101410.13;5018208;28;20033;-64
2023/07/11 03:28:50;;;;;;;10.02;5.93;;;;;;;17.79;75.23;101414.69;5023521;28;20565;-64
2023/07/11 03:31:16;;;;;;;11.40;5.82;;;;;;;17.79;74.82;101406.63;5022661;28;20037;-64
2023/07/11 03:33:42;;;;;;;9.77;5.93;;;;;;;17.78;75.06;101406.84;5029121;28;20556;-64
2023/07/11 03:36:07;;;;;;;9.10;5.70;;;;;;;17.78;74.99;101404.13;5023119;28;20026;-65
2023/07/11 03:38:32;;;;;;;12.85;5.65;;;;;;;17.77;74.93;101405.16;5021837;28;20531;-64
2023/07/11 03:40:58;;;;;;;8.90;6.10;;;;;;;17.77;74.76;101406.00;5015137;28;20033;-64
2023/07/11 03:43:23;;;;;;;11.40;6.30;;;;;;;17.77;75.00;101405.16;5021153;28;20071;-65
2023/07/11 03:45:48;;;;;;;12.35;6.25;;;;;;;17.76;74.94;101406.22;5027801;28;20021;-64
2023/07/11 03:48:15;;;;;;;8.85;6.13;;;;;;;17.76;74.99;101403.53;5022508;28;20013;-64
2023/07/11 03:50:40;;;;;;;8.38;6.10;;;;;;;17.73;75.27;101401.25;5025812;28;20491;-64
2023/07/11 03:53:06;;;;;;;12.30;6.50;;;;;;;17.74;75.08;101408.28;5022825;28;20037;-64
2023/07/11 03:55:31;;;;;;;9.75;6.68;;;;;;;17.72;75.25;101407.66;5028053;28;20148;-64
2023/07/11 03:57:56;;;;;;;13.52;6.53;;;;;;;17.71;75.45;101406.00;5025787;28;20037;-64
2023/07/11 04:00:22;;;;;;;15.35;8.30;;;;;;;17.71;75.84;101401.44;5023232;28;20022;-64
2023/07/11 04:02:47;;;;;;;11.80;7.22;;;;;;;17.68;75.52;101395.66;5025151;28;20106;-64
2023/07/11 04:05:12;;;;;;;8.73;6.10;;;;;;;17.70;75.84;101390.91;5021526;28;20039;-64
2023/07/11 04:07:38;;;;;;;12.40;6.88;;;;;;;17.69;75.53;101384.72;5018492;28;20040;-64
2023/07/11 04:10:05;;;;;;;10.80;6.18;;;;;;;17.69;75.56;101386.56;5016952;28;20033;-63
2023/07/11 04:12:30;;;;;;;13.52;6.43;;;;;;;17.68;76.05;101382.22;5015822;28;20029;-65
2023/07/11 04:14:56;;;;;;;14.65;6.63;;;;;;;17.68;76.13;101385.75;5026525;28;20434;-64
2023/07/11 04:17:21;;;;;;;10.10;6.53;;;;;;;17.68;75.86;101387.59;5017669;28;20487;-64
2023/07/11 04:19:46;;;;;;;9.20;6.32;;;;;;;17.69;76.19;101389.25;5018156;28;20033;-64
2023/07/11 04:22:11;;;;;;;11.45;6.90;;;;;;;17.71;75.83;101379.13;5020179;28;20147;-64
2023/07/11 04:24:37;;;;;;;15.00;6.35;;;;;;;17.68;76.17;101382.22;5027334;28;20052;-64
2023/07/11 04:27:02;;;;;;;10.45;6.22;;;;;;;17.72;76.33;101380.78;5016024;28;20034;-64
2023/07/11 04:29:27;;;;;;;15.40;6.68;;;;;;;17.72;76.10;101376.25;5026239;28;20053;-64
2023/07/11 04:31:53;;;;;;;12.05;6.65;;;;;;;17.73;76.45;101371.69;5019257;28;20372;-64
2023/07/11 04:34:18;;;;;;;10.98;6.53;;;;;;;17.79;76.58;101368.19;5026026;28;20021;-64
2023/07/11 04:36:43;;;;;;;9.98;6.47;;;;;;;17.82;76.26;101365.91;5019749;28;20049;-64
2023/07/11 04:39:09;;;;;;;12.02;6.78;;;;;;;17.86;76.23;101359.09;5026672;28;20029;-64
2023/07/11 04:41:34;;;;;;;8.15;6.57;;;;;;;17.91;76.56;101361.97;5025519;28;20022;-64
2023/07/11 04:43:59;;;;;;;12.52;6.75;;;;;;;17.94;76.29;101358.91;5018101;28;20122;-64
2023/07/11 04:46:25;;;;;;;10.25;6.68;;;;;;;17.99;76.22;101358.28;5024839;28;20022;-64
2023/07/11 04:48:51;;;;;;;10.40;6.32;;;;;;;18.01;76.25;101352.69;5022393;28;20026;-64
2023/07/11 04:51:16;;;;;;;8.73;6.70;;;;;;;18.06;76.39;101351.03;5021518;28;20487;-64
2023/07/11 04:53:42;;;;;;;11.63;6.85;;;;;;;18.12;76.12;101341.31;5022792;28;20037;-64
2023/07/11 04:56:09;;;;;;;10.40;5.63;;;;;;;18.17;75.73;101349.56;5020346;28;20025;-64
2023/07/11 04:58:35;;;;;;;10.40;6.03;;;;;;;18.20;75.29;101344.59;5021315;28;20022;-64
2023/07/11 05:01:05;;;;;;;8.90;5.70;;;;;;;18.23;75.49;101341.53;5023438;28;20407;-64
2023/07/11 05:03:31;;;;;;;11.27;6.13;;;;;;;18.31;75.14;101345.84;5014690;28;20022;-64
2023/07/11 05:05:57;;;;;;;11.38;5.82;;;;;;;18.38;75.40;101332.38;5009851;28;20040;-64
2023/07/11 05:08:22;;;;;;;9.15;5.75;;;;;;;18.41;75.08;101340.88;5023740;28;20025;-63
2023/07/11 05:10:59;;;;;;;9.63;5.40;;;;;;;18.47;75.10;101349.94;5021626;28;20519;-64
2023/07/11 05:13:24;;;;;;;11.18;5.53;;;;;;;18.47;74.26;101333.81;5017994;28;20055;-63
2023/07/11 05:15:50;;;;;;;9.95;5.43;;;;;;;18.56;74.19;101335.25;5022437;28;20060;-64
2023/07/11 05:18:18;;;;;;;10.73;5.53;;;;;;;18.58;74.27;101335.88;5022298;28;20021;-64
2023/07/11 05:20:43;;;;;;;9.95;5.22;;;;;;;18.69;74.17;101331.72;5022689;28;20482;-64
2023/07/11 05:23:09;;;;;;;7.95;4.88;;;;;;;18.73;73.91;101323.00;5017434;28;20026;-65
2023/07/11 05:25:37;;;;;;;10.77;4.95;;;;;;;18.80;73.51;101323.84;5021656;28;20033;-64
2023/07/11 05:28:03;;;;;;;9.90;5.10;;;;;;;18.90;73.19;101323.38;5014881;28;20026;-64
2023/07/11 05:30:29;;;;;;;7.45;4.70;;;;;;;18.91;72.93;101316.94;5022425;28;20030;-64
2023/07/11 05:32:55;;;;;;;12.35;4.90;;;;;;;18.94;72.59;101323.75;5012833;28;20022;-64
2023/07/11 05:35:20;;;;;;;8.52;4.35;;;;;;;18.95;72.26;101314.66;5015278;28;20476;-64
2023/07/11 05:37:45;;;;;;;11.20;4.50;;;;;;;19.01;72.05;101324.56;5014510;28;20033;-64
2023/07/11 05:40:11;;;;;;;7.97;4.40;;;;;;;19.03;71.81;101315.22;5011433;28;20026;-64
2023/07/11 05:42:36;;;;;;;9.38;4.20;;;;;;;19.05;71.95;101318.53;5019742;28;20044;-64
2023/07/11 05:45:02;;;;;;;9.57;4.03;;;;;;;19.07;71.62;101315.63;5013987;28;20435;-64
2023/07/11 05:47:28;;;;;;;8.82;4.20;;;;;;;19.15;71.44;101320.78;5016368;28;20026;-64
2023/07/11 05:49:53;;;;;;;7.10;4.50;;;;;;;19.20;71.30;101312.88;5009612;28;20033;-64
2023/07/11 05:52:18;;;;;;;8.05;4.07;;;;;;;19.27;70.75;101310.97;5016927;28;20029;-63
2023/07/11 05:54:43;;;;;;;6.07;3.58;;;;;;;19.37;70.43;101308.63;5021786;28;20391;-64
2023/07/11 05:57:09;;;;;;;10.75;3.97;;;;;;;19.39;70.01;101303.84;5014943;28;20033;-64
2023/07/11 05:59:34;;;;;;;9.60;4.10;;;;;;;19.54;69.49;101306.25;5018271;28;20572;-64
2023/07/11 06:01:59;;;;;;;7.22;3.33;;;;;;;19.63;69.22;101301.41;5015406;28;20163;-64
2023/07/11 06:04:24;;;;;;;7.97;3.50;;;;;;;19.72;68.96;101292.03;5017246;28;20025;-64
2023/07/11 06:06:50;;;;;;;9.13;3.72;;;;;;;19.77;68.66;101298.41;5014399;28;20401;-64
2023/07/11 06:09:17;;;;;;;7.72;3.83;;;;;;;19.85;68.54;101301.88;5018748;28;20053;-64
2023/07/11 06:11:44;;;;;;;7.80;3.60;;;;;;;19.91;68.29;101299.13;5013415;28;20021;-64
2023/07/11 06:14:11;;;;;;;6.82;3.28;;;;;;;19.96;68.11;101293.91;5016144;28;20084;-64
2023/07/11 06:16:38;;;;;;;8.40;3.60;;;;;;;20.04;67.78;101300.88;5018508;28;20053;-64
2023/07/11 06:19:04;;;;;;;6.68;3.20;;;;;;;20.08;67.34;101289.44;5020426;28;20531;-64
2023/07/11 06:21:30;;;;;;;10.30;3.40;;;;;;;20.12;67.49;101289.81;5018148;28;20017;-64
2023/07/11 06:23:56;;;;;;;9.45;3.50;;;;;;;20.19;67.29;101287.03;5018429;28;20479;-64
2023/07/11 06:26:21;;;;;;;9.13;3.50;;;;;;;20.23;66.79;101288.22;5021016;28;20032;-64
2023/07/11 06:28:46;;;;;;;11.73;3.45;;;;;;;20.28;66.92;101283.00;5018651;28;20026;-64
2023/07/11 06:31:12;;;;;;;8.30;3.30;;;;;;;20.34;66.88;101287.50;5022383;28;20120;-64
2023/07/11 06:33:38;;;;;;;6.47;3.10;;;;;;;20.38;66.84;101283.31;5017904;28;20017;-64
2023/07/11 06:36:05;;;;;;;8.25;3.35;;;;;;;20.44;66.48;101282.44;5015074;28;20030;-64
2023/07/11 06:38:30;;;;;;;8.82;3.00;;;;;;;20.49;66.42;101290.69;5011217;28;20152;-64
2023/07/11 06:40:56;;;;;;;9.40;4.18;;;;;;;20.57;66.54;101278.78;5018737;28;20120;-64
2023/07/11 06:43:24;;;;;;;11.57;3.20;;;;;;;20.63;66.02;101278.69;5023528;28;20036;-64
2023/07/11 06:45:53;;;;;;;13.63;3.30;;;;;;;20.75;65.91;101280.63;5014657;28;20025;-64
2023/07/11 06:48:18;;;;;;;;;;;;;;;20.82;65.93;101286.78;5021227;28;20098;-64
2023/07/11 06:50:53;;;;;;;6.22;3.47;;;;;;;20.88;65.46;101281.28;5020683;28;19913;-63
2023/07/11 06:53:19;;;;;;;8.10;3.00;;;;;;;20.97;65.13;101281.78;5028176;28;20070;-64
2023/07/11 06:55:50;;;;;;;8.90;3.20;;;;;;;21.01;65.09;101283.78;5022744;28;20040;-64
2023/07/11 06:58:16;;;;;;;7.97;3.33;;;;;;;21.09;64.97;101279.94;5022395;28;20603;-64
2023/07/11 07:00:42;;;;;;;11.48;4.60;;;;;;;21.14;64.66;101277.41;5022228;28;20037;-64
2023/07/11 07:03:10;;;;;;;5.97;3.00;;;;;;;21.20;63.96;101275.66;5020395;28;20044;-64
2023/07/11 07:05:36;;;;;;;5.47;3.13;;;;;;;21.24;63.75;101271.47;5023059;28;20033;-64
2023/07/11 07:08:01;;;;;;;13.18;3.22;;;;;;;21.32;63.33;101271.94;5022565;28;20021;-64
2023/07/11 07:10:26;;;;;;;5.97;3.03;;;;;;;21.43;63.31;101270.34;5017845;28;20476;-64
2023/07/11 07:12:51;;;;;;;7.72;3.00;;;;;;;21.54;63.29;101268.72;5017715;28;20034;-64
2023/07/11 07:15:17;;;;;;;7.63;2.90;;;;;;;21.61;63.35;101274.84;5024182;28;20029;-64
2023/07/11 07:17:42;;;;;;;11.75;3.03;;;;;;;21.75;63.00;101280.88;5023085;28;20031;-64
2023/07/11 07:20:09;;;;;;;12.50;3.00;;;;;;;21.86;62.66;101283.56;5023361;28;20017;-64
2023/07/11 07:22:34;;;;;;;11.18;2.80;;;;;;;21.93;61.94;101281.56;5013777;28;20026;-65
2023/07/11 07:24:59;;;;;;;7.75;2.70;;;;;;;22.04;61.31;101271.03;5023191;28;20026;-65
2023/07/11 07:27:25;;;;;;;7.50;2.65;;;;;;;22.12;59.97;101273.38;5027951;28;20034;-65
2023/07/11 07:29:51;;;;;;;7.47;2.72;;;;;;;22.18;59.55;101267.81;5013196;28;20033;-65
2023/07/11 07:32:16;;;;;;;8.27;3.00;;;;;;;22.29;59.79;101265.38;5016206;28;20030;-64
2023/07/11 07:34:42;;;;;;;9.32;2.90;;;;;;;22.39;59.78;101269.09;5014050;28;20017;-65
2023/07/11 07:37:07;;;;;;;6.70;2.70;;;;;;;22.47;59.46;101270.59;5011726;28;20022;-65
2023/07/11 07:39:32;;;;;;;6.50;2.38;;;;;;;22.53;59.10;101269.63;5022162;28;20032;-65
2023/07/11 07:41:57;;;;;;;6.25;2.90;;;;;;;22.61;58.42;101263.06;5010282;28;20045;-65
2023/07/11 07:44:23;;;;;;;11.13;2.97;;;;;;;22.68;58.62;101253.72;5013648;28;20108;-65
2023/07/11 07:46:48;;;;;;;8.18;2.50;;;;;;;22.74;57.74;101260.88;5009695;28;20037;-65
2023/07/11 07:49:13;;;;;;;8.18;3.10;;;;;;;22.75;57.15;101250.88;5014651;28;20779;-65
2023/07/11 07:51:38;;;;;;;6.30;2.40;;;;;;;22.77;56.91;101249.56;5019341;28;20026;-65
2023/07/11 07:54:04;;;;;;;7.97;3.17;;;;;;;22.85;56.82;101248.41;5012686;28;20522;-65
2023/07/11 07:56:30;;;;;;;6.55;2.63;;;;;;;22.95;56.84;101243.16;5017449;28;20060;-65
2023/07/11 07:58:55;;;;;;;7.55;2.90;;;;;;;23.11;56.83;101247.78;5009502;28;20100;-64
2023/07/11 08:01:22;;;;;;;4.70;2.47;;;;;;;23.26;56.66;101241.00;5023915;28;20100;-65
2023/07/11 08:03:48;;;;;;;7.72;2.50;;;;;;;23.45;57.17;101251.38;5025640;28;20052;-64
2023/07/11 08:06:16;;;;;;;5.53;2.53;;;;;;;23.57;55.82;101250.50;5017163;28;20029;-65
2023/07/11 08:08:41;;;;;;;7.95;2.33;;;;;;;23.67;54.91;101248.75;5025673;28;20034;-64
2023/07/11 08:11:07;;;;;;;7.65;3.08;;;;;;;23.71;55.00;101236.38;5025374;28;20108;-64
2023/07/11 08:13:34;;;;;;;6.80;2.75;;;;;;;23.81;55.02;101248.44;5019668;28;20457;-65
2023/07/11 08:16:00;;;;;;;5.53;2.38;;;;;;;23.90;55.12;101242.34;5025373;28;20029;-64
2023/07/11 08:18:26;;;;;;;9.77;2.70;;;;;;;24.00;54.83;101241.69;5024800;28;20025;-64
2023/07/11 08:20:51;;;;;;;6.72;2.20;;;;;;;24.13;53.96;101243.19;5023535;28;20083;-65
2023/07/11 08:23:17;;;;;;;4.70;2.05;;;;;;;24.27;53.39;101242.56;5022764;28;20065;-64
2023/07/11 08:25:42;;;;;;;4.82;2.03;;;;;;;24.39;52.63;101239.78;5019620;28;20029;-64
2023/07/11 08:28:07;;;;;;;6.68;2.38;;;;;;;24.49;52.37;101234.47;5017631;28;20041;-65
2023/07/11 08:30:39;;;;;;;5.50;2.20;;;;;;;24.58;52.12;101232.13;5021236;28;20685;-64
2023/07/11 08:33:04;;;;;;;8.30;2.20;;;;;;;24.71;51.90;101239.88;5027755;28;20116;-65
2023/07/11 08:35:29;;;;;;;9.48;2.08;;;;;;;24.91;51.94;101233.84;5023353;28;20104;-65
2023/07/11 08:37:55;;;;;;;7.70;2.25;;;;;;;25.06;51.72;101233.19;5021676;28;20026;-65
2023/07/11 08:40:23;;;;;;;8.65;2.30;;;;;;;25.12;51.30;101230.28;5026136;28;20396;-64
2023/07/11 08:42:48;;;;;;;6.13;2.10;;;;;;;25.33;51.34;101234.00;5025196;28;20491;-64
2023/07/11 08:45:24;;;;;;;8.50;2.05;;;;;;;25.46;50.73;101222.69;5027197;28;20019;-65
2023/07/11 08:48:07;;;;;;;5.95;2.30;;;;;;;25.54;50.07;101224.94;5026713;28;20029;-65
2023/07/11 08:50:36;;;;;;;7.32;2.00;;;;;;;25.68;49.78;101219.88;5022902;28;20629;-64
2023/07/11 08:53:11;;;;;;;10.23;2.33;;;;;;;25.91;49.39;101224.09;5025281;28;20025;-65
2023/07/11 08:55:41;;;;;;;6.13;2.10;;;;;;;25.97;49.12;101233.13;5027920;28;20514;-65
2023/07/11 08:58:29;;;;;;;5.60;1.80;;;;;;;25.98;48.02;101230.13;5018057;28;20168;-65
2023/07/11 09:00:56;;;;;;;7.20;2.30;;;;;;;25.95;47.80;101222.50;5027076;28;20036;-65
2023/07/11 09:03:47;;;;;;;6.55;2.20;;;;;;;25.87;47.51;101221.09;5025198;28;20632;-65
2023/07/11 09:06:17;;;;;;;9.05;2.10;;;;;;;25.72;47.84;101215.53;5021678;28;20025;-64
2023/07/11 09:08:45;;;;;;;6.90;2.10;;;;;;;25.63;48.29;101217.09;5024736;28;20033;-65
2023/07/11 09:11:14;;;;;;;7.05;2.05;;;;;;;25.61;48.46;101219.25;5020839;28;20395;-65
2023/07/11 09:13:54;;;;;;;5.82;1.92;;;;;;;25.70;48.38;101227.78;5017306;28;20503;-65
2023/07/11 09:16:26;;;;;;;6.47;2.15;;;;;;;25.85;48.44;101219.72;5020416;28;20035;-65
2023/07/11 09:19:07;;;;;;;11.15;2.42;;;;;;;26.00;48.74;101206.19;5026758;28;20021;-65
2023/07/11 09:22:02;;;;;;;8.77;2.13;;;;;;;26.00;48.05;101222.53;5022738;28;20033;-65
2023/07/11 09:24:48;;;;;;;5.57;1.80;;;;;;;25.94;48.10;101220.84;5026406;28;20040;-65
2023/07/11 09:27:46;;;;;;;4.88;2.00;;;;;;;25.81;48.59;101215.91;5014310;28;20017;-64
2023/07/11 09:30:17;;;;;;;7.43;2.00;;;;;;;25.75;48.50;101200.63;5016628;28;20030;-65
2023/07/11 09:32:42;;;;;;;6.65;2.10;;;;;;;25.71;48.27;101202.22;5019247;28;20060;-65
2023/07/11 09:35:31;;;;;;;9.38;2.20;;;;;;;25.79;48.56;101209.91;5021232;28;20021;-65
2023/07/11 09:38:28;;;;;;;7.40;2.45;;;;;;;25.92;48.42;101198.53;5019831;28;20087;-65
2023/07/11 09:41:13;;;;;;;7.45;2.50;;;;;;;25.99;48.59;101209.19;5019252;28;20061;-65
2023/07/11 09:43:38;;;;;;;9.70;2.60;;;;;;;25.93;47.18;101189.28;5023430;28;20072;-65
2023/07/11 09:46:13;;;;;;;4.85;2.38;;;;;;;25.87;47.59;101191.16;5012695;28;20521;-65
2023/07/11 09:48:40;;;;;;;5.57;2.08;;;;;;;26.07;47.86;101186.91;5018737;28;20033;-64
2023/07/11 09:51:24;;;;;;;6.93;2.53;;;;;;;26.32;47.71;101194.38;5025211;28;20037;-64
2023/07/11 09:53:53;;;;;;;6.18;2.53;;;;;;;26.61;46.81;101198.31;5021772;28;20105;-65
2023/07/11 09:56:18;;;;;;;4.57;2.10;;;;;;;26.58;45.84;101198.00;5024682;28;20036;-65
2023/07/11 09:58:50;;;;;;;5.10;2.20;;;;;;;26.48;45.24;101190.63;5021918;28;20116;-65
2023/07/11 10:01:24;;;;;;;6.25;2.50;;;;;;;26.59;45.48;101183.31;5024755;28;20029;-64
2023/07/11 10:03:54;;;;;;;7.78;2.65;;;;;;;26.72;45.07;101186.34;5026006;28;20507;-64
2023/07/11 10:06:41;;;;;;;8.63;2.25;;;;;;;26.84;45.14;101183.34;5029072;28;20494;-65
2023/07/11 10:09:12;;;;;;;8.60;2.58;;;;;;;26.78;44.12;101176.25;5026473;28;20106;-65
2023/07/11 10:11:37;;;;;;;9.00;2.70;;;;;;;26.79;44.41;101170.53;5028644;28;20033;-65
2023/07/11 10:14:03;;;;;;;7.85;2.38;;;;;;;26.89;44.69;101179.81;5026232;28;20038;-65
2023/07/11 10:16:32;;;;;;;5.75;2.40;;;;;;;26.97;44.74;101171.13;5025882;28;20021;-64
2023/07/11 10:18:57;;;;;;;5.65;2.45;;;;;;;27.22;45.49;101164.88;5028347;28;20026;-65
2023/07/11 10:21:27;;;;;;;5.38;2.50;;;;;;;27.23;44.69;101161.88;5026092;28;20049;-65
2023/07/11 10:23:53;;;;;;;;;;;;;;;27.34;44.74;101166.22;5018746;28;20032;-65
2023/07/11 10:26:19;;;;;;;7.55;2.47;;;;;;;27.35;44.73;101167.84;5023384;28;19929;-64
2023/07/11 10:28:48;;;;;;;8.48;2.30;;;;;;;27.38;45.04;101166.50;5021430;28;20025;-65
2023/07/11 10:31:18;;;;;;;6.45;2.47;;;;;;;27.40;44.37;101153.41;5024925;28;20057;-65
2023/07/11 10:33:48;;;;;;;6.13;2.53;;;;;;;27.63;44.84;101154.75;5030619;28;20242;-65
2023/07/11 10:36:19;;;;;;;7.65;2.60;;;;;;;27.80;44.20;101152.53;5025521;28;20427;-65
2023/07/11 10:38:51;;;;;;;7.38;2.22;;;;;;;27.80;43.37;101152.53;5027045;28;20438;-64
2023/07/11 10:41:22;;;;;;;6.43;2.30;;;;;;;27.79;42.77;101150.09;5023256;28;20033;-65
2023/07/11 10:43:51;;;;;;;5.00;2.50;;;;;;;27.64;42.76;101138.09;5027767;28;20100;-65
2023/07/11 10:46:35;;;;;;;5.03;2.10;;;;;;;27.66;43.05;101160.47;5020945;28;20403;-64
2023/07/11 10:49:06;;;;;;;5.63;2.53;;;;;;;27.76;43.56;101135.09;5028705;28;20095;-65
2023/07/11 10:52:01;;;;;;;8.30;2.58;;;;;;;27.87;43.70;101142.13;5028946;28;20025;-64
2023/07/11 10:54:40;;;;;;;6.72;2.40;;;;;;;27.78;43.15;101132.88;5028935;28;20509;-65
2023/07/11 10:57:13;;;;;;;9.63;2.78;;;;;;;27.74;43.84;101129.06;5021159;28;20022;-65
2023/07/11 10:59:38;;;;;;;4.90;2.30;;;;;;;27.75;43.83;101131.50;5021399;28;20706;-65
2023/07/11 11:02:14;;;;;;;6.47;2.53;;;;;;;27.71;43.19;101143.25;5025447;28;20025;-65
2023/07/11 11:05:04;;;;;;;6.20;2.10;;;;;;;27.55;43.00;101139.75;5017440;28;20088;-64
2023/07/11 11:07:40;;;;;;;7.53;2.38;;;;;;;27.43;42.91;101136.47;5019425;28;20017;-65
2023/07/11 11:10:27;;;;;;;6.13;2.40;;;;;;;27.39;43.45;101138.13;5026849;28;20025;-64
2023/07/11 11:12:55;;;;;;;7.03;2.47;;;;;;;27.40;43.88;101126.94;5028522;28;20029;-65
2023/07/11 11:15:42;;;;;;;7.15;2.70;;;;;;;27.55;43.92;101128.81;5029708;28;20049;-66
2023/07/11 11:18:26;;;;;;;5.38;2.38;;;;;;;27.83;43.59;101121.13;5025448;28;20033;-65
2023/07/11 11:21:04;;;;;;;8.48;2.78;;;;;;;27.91;42.83;101115.91;5022595;28;20033;-65
2023/07/11 11:23:48;;;;;;;7.47;2.25;;;;;;;28.12;42.88;101105.72;5026067;28;20033;-65
2023/07/11 11:26:32;;;;;;;6.50;2.45;;;;;;;28.12;42.04;101113.91;5025968;28;20025;-64
2023/07/11 11:29:17;;;;;;;7.97;2.40;;;;;;;28.23;42.77;101114.66;5020856;28;20033;-65